sensor_id;sensor_type;location;lat;lon;timestamp;P1;durP1;ratioP1;P2;durP2;ratioP2
6479;SDS011;3273;48.788;9.200;2023-07-20T00:02:23;2.10;;;1.77;;
6479;SDS011;3273;48.788;9.200;2023-07-20T00:04:50;2.60;;;2.27;;
6479;SDS011;3273;48.788;9.200;2023-07-20T00:07:17;3.73;;;2.33;;
6479;SDS011;3273;48.788;9.200;2023-07-20T00:09:45;2.23;;;1.80;;
6479;SDS011;3273;48.788;9.200;2023-07-20T00:12:12;5.47;;;2.20;;
6479;SDS011;3273;48.788;9.200;2023-07-20T00:14:38;3.83;;;2.03;;
6479;SDS011;3273;48.788;9.200;2023-07-20T00:17:05;2.70;;;2.00;;
6479;SDS011;3273;48.788;9.200;2023-07-20T00:19:32;2.80;;;1.80;;
6479;SDS011;3273;48.788;9.200;2023-07-20T00:22:00;3.60;;;2.10;;
6479;SDS011;3273;48.788;9.200;2023-07-20T00:24:26;2.73;;;1.73;;
6479;SDS011;3273;48.788;9.200;2023-07-20T00:26:54;4.83;;;2.00;;
6479;SDS011;3273;48.788;9.200;2023-07-20T00:29:21;3.17;;;2.20;;
6479;SDS011;3273;48.788;9.200;2023-07-20T00:31:48;2.87;;;2.10;;
6479;SDS011;3273;48.788;9.200;2023-07-20T00:34:14;4.97;;;2.07;;
6479;SDS011;3273;48.788;9.200;2023-07-20T00:36:41;4.03;;;2.00;;
6479;SDS011;3273;48.788;9.200;2023-07-20T00:39:08;3.90;;;2.10;;
6479;SDS011;3273;48.788;9.200;2023-07-20T00:41:34;2.60;;;1.90;;
6479;SDS011;3273;48.788;9.200;2023-07-20T00:44:02;2.23;;;1.90;;
6479;SDS011;3273;48.788;9.200;2023-07-20T00:46:29;3.73;;;1.90;;
6479;SDS011;3273;48.788;9.200;2023-07-20T00:48:57;3.03;;;2.20;;
6479;SDS011;3273;48.788;9.200;2023-07-20T00:51:25;2.37;;;2.03;;
6479;SDS011;3273;48.788;9.200;2023-07-20T00:53:52;4.03;;;2.10;;
6479;SDS011;3273;48.788;9.200;2023-07-20T00:56:19;5.10;;;2.00;;
6479;SDS011;3273;48.788;9.200;2023-07-20T00:58:46;2.97;;;1.93;;
6479;SDS011;3273;48.788;9.200;2023-07-20T01:01:14;4.20;;;1.93;;
6479;SDS011;3273;48.788;9.200;2023-07-20T01:03:41;3.47;;;2.10;;
6479;SDS011;3273;48.788;9.200;2023-07-20T01:06:10;2.67;;;1.97;;
6479;SDS011;3273;48.788;9.200;2023-07-20T01:08:43;2.20;;;2.00;;
6479;SDS011;3273;48.788;9.200;2023-07-20T01:11:16;3.03;;;2.03;;
6479;SDS011;3273;48.788;9.200;2023-07-20T01:13:45;3.40;;;2.07;;
6479;SDS011;3273;48.788;9.200;2023-07-20T01:16:13;2.90;;;2.10;;
6479;SDS011;3273;48.788;9.200;2023-07-20T01:18:41;3.07;;;1.90;;
6479;SDS011;3273;48.788;9.200;2023-07-20T01:21:09;3.10;;;2.17;;
6479;SDS011;3273;48.788;9.200;2023-07-20T01:26:44;6.30;;;1.97;;
6479;SDS011;3273;48.788;9.200;2023-07-20T01:29:41;5.20;;;1.90;;
6479;SDS011;3273;48.788;9.200;2023-07-20T01:32:23;3.33;;;1.80;;
6479;SDS011;3273;48.788;9.200;2023-07-20T01:34:51;4.50;;;2.10;;
6479;SDS011;3273;48.788;9.200;2023-07-20T01:37:20;2.60;;;2.20;;
6479;SDS011;3273;48.788;9.200;2023-07-20T01:39:51;2.93;;;2.00;;
6479;SDS011;3273;48.788;9.200;2023-07-20T01:42:20;2.90;;;2.00;;
6479;SDS011;3273;48.788;9.200;2023-07-20T01:44:47;4.20;;;2.10;;
6479;SDS011;3273;48.788;9.200;2023-07-20T01:47:16;2.13;;;1.93;;
6479;SDS011;3273;48.788;9.200;2023-07-20T01:49:44;2.43;;;1.87;;
6479;SDS011;3273;48.788;9.200;2023-07-20T01:52:11;3.07;;;2.00;;
6479;SDS011;3273;48.788;9.200;2023-07-20T01:54:37;2.67;;;1.90;;
6479;SDS011;3273;48.788;9.200;2023-07-20T01:57:04;3.47;;;2.03;;
6479;SDS011;3273;48.788;9.200;2023-07-20T01:59:31;2.57;;;1.97;;
6479;SDS011;3273;48.788;9.200;2023-07-20T02:01:58;3.70;;;2.07;;
6479;SDS011;3273;48.788;9.200;2023-07-20T02:04:24;3.17;;;1.90;;
6479;SDS011;3273;48.788;9.200;2023-07-20T02:06:52;4.27;;;2.17;;
6479;SDS011;3273;48.788;9.200;2023-07-20T02:09:19;2.67;;;2.10;;
6479;SDS011;3273;48.788;9.200;2023-07-20T02:11:45;2.60;;;2.00;;
6479;SDS011;3273;48.788;9.200;2023-07-20T02:14:13;5.37;;;2.23;;
6479;SDS011;3273;48.788;9.200;2023-07-20T02:16:39;2.60;;;2.17;;
6479;SDS011;3273;48.788;9.200;2023-07-20T02:19:06;4.43;;;2.10;;
6479;SDS011;3273;48.788;9.200;2023-07-20T02:21:33;3.13;;;2.40;;
6479;SDS011;3273;48.788;9.200;2023-07-20T02:24:01;3.87;;;2.10;;
6479;SDS011;3273;48.788;9.200;2023-07-20T02:26:27;3.30;;;2.30;;
6479;SDS011;3273;48.788;9.200;2023-07-20T02:28:54;4.90;;;2.13;;
6479;SDS011;3273;48.788;9.200;2023-07-20T02:31:20;2.80;;;2.00;;
6479;SDS011;3273;48.788;9.200;2023-07-20T02:33:47;3.30;;;2.10;;
6479;SDS011;3273;48.788;9.200;2023-07-20T02:36:14;3.67;;;2.13;;
6479;SDS011;3273;48.788;9.200;2023-07-20T02:38:41;3.50;;;2.10;;
6479;SDS011;3273;48.788;9.200;2023-07-20T02:41:09;3.33;;;2.20;;
6479;SDS011;3273;48.788;9.200;2023-07-20T02:43:36;3.50;;;2.17;;
6479;SDS011;3273;48.788;9.200;2023-07-20T02:46:03;3.30;;;2.00;;
6479;SDS011;3273;48.788;9.200;2023-07-20T02:48:29;5.33;;;2.10;;
6479;SDS011;3273;48.788;9.200;2023-07-20T02:50:56;3.07;;;1.90;;
6479;SDS011;3273;48.788;9.200;2023-07-20T02:53:23;2.90;;;2.20;;
6479;SDS011;3273;48.788;9.200;2023-07-20T02:55:49;5.63;;;2.37;;
6479;SDS011;3273;48.788;9.200;2023-07-20T02:58:17;3.70;;;2.20;;
6479;SDS011;3273;48.788;9.200;2023-07-20T03:00:44;4.60;;;2.20;;
6479;SDS011;3273;48.788;9.200;2023-07-20T03:03:10;4.70;;;2.40;;
6479;SDS011;3273;48.788;9.200;2023-07-20T03:05:40;2.37;;;2.00;;
6479;SDS011;3273;48.788;9.200;2023-07-20T03:08:06;3.83;;;2.10;;
6479;SDS011;3273;48.788;9.200;2023-07-20T03:10:37;4.30;;;2.00;;
6479;SDS011;3273;48.788;9.200;2023-07-20T03:13:05;2.53;;;1.87;;
6479;SDS011;3273;48.788;9.200;2023-07-20T03:15:33;5.87;;;2.10;;
6479;SDS011;3273;48.788;9.200;2023-07-20T03:18:00;2.37;;;1.97;;
6479;SDS011;3273;48.788;9.200;2023-07-20T03:20:28;2.57;;;1.90;;
6479;SDS011;3273;48.788;9.200;2023-07-20T03:22:55;3.50;;;2.00;;
6479;SDS011;3273;48.788;9.200;2023-07-20T03:25:22;3.40;;;2.00;;
6479;SDS011;3273;48.788;9.200;2023-07-20T03:27:48;2.97;;;1.90;;
6479;SDS011;3273;48.788;9.200;2023-07-20T03:30:15;3.83;;;2.10;;
6479;SDS011;3273;48.788;9.200;2023-07-20T03:32:43;4.87;;;2.50;;
6479;SDS011;3273;48.788;9.200;2023-07-20T03:35:10;3.67;;;2.10;;
6479;SDS011;3273;48.788;9.200;2023-07-20T03:37:36;3.00;;;2.03;;
6479;SDS011;3273;48.788;9.200;2023-07-20T03:40:03;2.80;;;2.00;;
6479;SDS011;3273;48.788;9.200;2023-07-20T03:42:32;5.47;;;2.10;;
6479;SDS011;3273;48.788;9.200;2023-07-20T03:44:59;4.53;;;2.00;;
6479;SDS011;3273;48.788;9.200;2023-07-20T03:47:25;3.67;;;2.40;;
6479;SDS011;3273;48.788;9.200;2023-07-20T03:49:53;2.63;;;2.00;;
6479;SDS011;3273;48.788;9.200;2023-07-20T03:52:20;4.37;;;2.13;;
6479;SDS011;3273;48.788;9.200;2023-07-20T03:54:47;3.07;;;2.00;;
6479;SDS011;3273;48.788;9.200;2023-07-20T03:57:13;3.00;;;1.87;;
6479;SDS011;3273;48.788;9.200;2023-07-20T03:59:44;2.90;;;1.83;;
6479;SDS011;3273;48.788;9.200;2023-07-20T04:02:11;3.70;;;2.03;;
6479;SDS011;3273;48.788;9.200;2023-07-20T04:04:38;4.03;;;1.97;;
6479;SDS011;3273;48.788;9.200;2023-07-20T04:07:06;3.10;;;2.23;;
6479;SDS011;3273;48.788;9.200;2023-07-20T04:09:33;5.03;;;2.27;;
6479;SDS011;3273;48.788;9.200;2023-07-20T04:11:59;3.90;;;2.17;;
6479;SDS011;3273;48.788;9.200;2023-07-20T04:14:26;4.27;;;2.20;;
6479;SDS011;3273;48.788;9.200;2023-07-20T04:16:53;3.73;;;2.20;;
6479;SDS011;3273;48.788;9.200;2023-07-20T04:19:19;3.07;;;2.13;;
6479;SDS011;3273;48.788;9.200;2023-07-20T04:21:46;4.00;;;2.27;;
6479;SDS011;3273;48.788;9.200;2023-07-20T04:24:14;3.07;;;1.90;;
6479;SDS011;3273;48.788;9.200;2023-07-20T04:26:41;2.87;;;2.07;;
6479;SDS011;3273;48.788;9.200;2023-07-20T04:29:07;3.13;;;2.10;;
6479;SDS011;3273;48.788;9.200;2023-07-20T04:31:34;3.57;;;1.90;;
6479;SDS011;3273;48.788;9.200;2023-07-20T04:34:01;4.67;;;2.30;;
6479;SDS011;3273;48.788;9.200;2023-07-20T04:36:27;4.10;;;2.23;;
6479;SDS011;3273;48.788;9.200;2023-07-20T04:38:54;4.77;;;2.07;;
6479;SDS011;3273;48.788;9.200;2023-07-20T04:41:22;3.27;;;2.13;;
6479;SDS011;3273;48.788;9.200;2023-07-20T04:43:50;3.73;;;1.90;;
6479;SDS011;3273;48.788;9.200;2023-07-20T04:46:16;2.43;;;2.00;;
6479;SDS011;3273;48.788;9.200;2023-07-20T04:48:44;4.87;;;2.07;;
6479;SDS011;3273;48.788;9.200;2023-07-20T04:51:10;3.60;;;1.83;;
6479;SDS011;3273;48.788;9.200;2023-07-20T04:53:37;3.57;;;2.23;;
6479;SDS011;3273;48.788;9.200;2023-07-20T04:56:03;2.73;;;1.80;;
6479;SDS011;3273;48.788;9.200;2023-07-20T04:58:31;2.27;;;1.90;;
6479;SDS011;3273;48.788;9.200;2023-07-20T05:00:58;2.10;;;1.87;;
6479;SDS011;3273;48.788;9.200;2023-07-20T05:03:25;3.27;;;2.00;;
6479;SDS011;3273;48.788;9.200;2023-07-20T05:05:51;3.77;;;2.00;;
6479;SDS011;3273;48.788;9.200;2023-07-20T05:08:18;3.07;;;2.00;;
6479;SDS011;3273;48.788;9.200;2023-07-20T05:10:47;3.30;;;1.90;;
6479;SDS011;3273;48.788;9.200;2023-07-20T05:13:14;2.83;;;2.00;;
6479;SDS011;3273;48.788;9.200;2023-07-20T05:15:42;4.33;;;2.10;;
6479;SDS011;3273;48.788;9.200;2023-07-20T05:18:08;5.97;;;2.00;;
6479;SDS011;3273;48.788;9.200;2023-07-20T05:20:35;2.53;;;2.00;;
6479;SDS011;3273;48.788;9.200;2023-07-20T05:23:02;3.57;;;2.20;;
6479;SDS011;3273;48.788;9.200;2023-07-20T05:25:29;2.93;;;1.90;;
6479;SDS011;3273;48.788;9.200;2023-07-20T05:27:56;3.03;;;2.10;;
6479;SDS011;3273;48.788;9.200;2023-07-20T05:30:22;5.67;;;2.40;;
6479;SDS011;3273;48.788;9.200;2023-07-20T05:32:50;3.50;;;2.10;;
6479;SDS011;3273;48.788;9.200;2023-07-20T05:35:19;3.80;;;2.07;;
6479;SDS011;3273;48.788;9.200;2023-07-20T05:37:46;3.97;;;2.07;;
6479;SDS011;3273;48.788;9.200;2023-07-20T05:40:13;2.30;;;2.00;;
6479;SDS011;3273;48.788;9.200;2023-07-20T05:42:43;3.60;;;1.93;;
6479;SDS011;3273;48.788;9.200;2023-07-20T05:45:11;2.67;;;1.90;;
6479;SDS011;3273;48.788;9.200;2023-07-20T05:47:38;4.23;;;2.30;;
6479;SDS011;3273;48.788;9.200;2023-07-20T05:50:07;3.17;;;2.03;;
6479;SDS011;3273;48.788;9.200;2023-07-20T05:52:34;2.40;;;1.83;;
6479;SDS011;3273;48.788;9.200;2023-07-20T05:55:00;3.33;;;1.93;;
6479;SDS011;3273;48.788;9.200;2023-07-20T05:57:28;2.90;;;2.37;;
6479;SDS011;3273;48.788;9.200;2023-07-20T05:59:55;4.57;;;2.20;;
6479;SDS011;3273;48.788;9.200;2023-07-20T06:02:21;3.43;;;2.00;;
6479;SDS011;3273;48.788;9.200;2023-07-20T06:04:48;3.00;;;2.03;;
6479;SDS011;3273;48.788;9.200;2023-07-20T06:07:16;3.03;;;1.90;;
6479;SDS011;3273;48.788;9.200;2023-07-20T06:09:42;3.10;;;1.87;;
6479;SDS011;3273;48.788;9.200;2023-07-20T06:12:09;2.97;;;2.00;;
6479;SDS011;3273;48.788;9.200;2023-07-20T06:14:36;2.87;;;2.10;;
6479;SDS011;3273;48.788;9.200;2023-07-20T06:17:03;2.37;;;2.00;;
6479;SDS011;3273;48.788;9.200;2023-07-20T06:19:30;3.40;;;2.27;;
6479;SDS011;3273;48.788;9.200;2023-07-20T06:21:57;4.17;;;2.30;;
6479;SDS011;3273;48.788;9.200;2023-07-20T06:24:25;2.43;;;1.90;;
6479;SDS011;3273;48.788;9.200;2023-07-20T06:26:51;3.33;;;1.90;;
6479;SDS011;3273;48.788;9.200;2023-07-20T06:29:18;6.10;;;3.17;;
6479;SDS011;3273;48.788;9.200;2023-07-20T06:31:45;2.50;;;2.00;;
6479;SDS011;3273;48.788;9.200;2023-07-20T06:34:12;2.93;;;2.10;;
6479;SDS011;3273;48.788;9.200;2023-07-20T06:36:38;2.93;;;2.17;;
6479;SDS011;3273;48.788;9.200;2023-07-20T06:39:05;3.70;;;2.00;;
6479;SDS011;3273;48.788;9.200;2023-07-20T06:41:33;2.83;;;2.00;;
6479;SDS011;3273;48.788;9.200;2023-07-20T06:44:00;3.37;;;2.10;;
6479;SDS011;3273;48.788;9.200;2023-07-20T06:46:26;3.23;;;2.20;;
6479;SDS011;3273;48.788;9.200;2023-07-20T06:48:53;5.67;;;2.10;;
6479;SDS011;3273;48.788;9.200;2023-07-20T06:51:20;3.03;;;1.80;;
6479;SDS011;3273;48.788;9.200;2023-07-20T06:53:47;2.40;;;1.80;;
6479;SDS011;3273;48.788;9.200;2023-07-20T06:56:13;3.07;;;1.90;;
6479;SDS011;3273;48.788;9.200;2023-07-20T06:58:41;3.13;;;1.93;;
6479;SDS011;3273;48.788;9.200;2023-07-20T07:01:08;3.60;;;2.00;;
6479;SDS011;3273;48.788;9.200;2023-07-20T07:03:35;3.00;;;2.13;;
6479;SDS011;3273;48.788;9.200;2023-07-20T07:06:02;5.73;;;2.13;;
6479;SDS011;3273;48.788;9.200;2023-07-20T07:08:29;7.53;;;2.03;;
6479;SDS011;3273;48.788;9.200;2023-07-20T07:10:56;3.00;;;2.10;;
6479;SDS011;3273;48.788;9.200;2023-07-20T07:13:22;4.67;;;1.90;;
6479;SDS011;3273;48.788;9.200;2023-07-20T07:15:51;7.87;;;2.10;;
6479;SDS011;3273;48.788;9.200;2023-07-20T07:18:18;2.20;;;1.80;;
6479;SDS011;3273;48.788;9.200;2023-07-20T07:20:54;4.40;;;2.00;;
6479;SDS011;3273;48.788;9.200;2023-07-20T07:23:21;2.60;;;2.00;;
6479;SDS011;3273;48.788;9.200;2023-07-20T07:25:47;3.57;;;2.20;;
6479;SDS011;3273;48.788;9.200;2023-07-20T07:28:14;3.67;;;2.20;;
6479;SDS011;3273;48.788;9.200;2023-07-20T07:30:41;3.40;;;2.10;;
6479;SDS011;3273;48.788;9.200;2023-07-20T07:33:09;6.17;;;1.87;;
6479;SDS011;3273;48.788;9.200;2023-07-20T07:35:36;2.30;;;2.10;;
6479;SDS011;3273;48.788;9.200;2023-07-20T07:38:02;3.00;;;1.80;;
6479;SDS011;3273;48.788;9.200;2023-07-20T07:40:30;4.90;;;2.10;;
6479;SDS011;3273;48.788;9.200;2023-07-20T07:42:57;2.47;;;1.90;;
6479;SDS011;3273;48.788;9.200;2023-07-20T07:45:23;5.37;;;2.13;;
6479;SDS011;3273;48.788;9.200;2023-07-20T07:47:50;3.77;;;2.00;;
6479;SDS011;3273;48.788;9.200;2023-07-20T07:50:18;3.30;;;2.20;;
6479;SDS011;3273;48.788;9.200;2023-07-20T07:52:45;4.17;;;2.20;;
6479;SDS011;3273;48.788;9.200;2023-07-20T07:55:12;7.00;;;2.47;;
6479;SDS011;3273;48.788;9.200;2023-07-20T07:57:38;4.03;;;2.40;;
6479;SDS011;3273;48.788;9.200;2023-07-20T08:00:05;5.43;;;2.10;;
6479;SDS011;3273;48.788;9.200;2023-07-20T08:02:37;3.10;;;2.10;;
6479;SDS011;3273;48.788;9.200;2023-07-20T08:05:04;2.80;;;2.00;;
6479;SDS011;3273;48.788;9.200;2023-07-20T08:07:32;2.50;;;2.13;;
6479;SDS011;3273;48.788;9.200;2023-07-20T08:09:59;4.10;;;2.30;;
6479;SDS011;3273;48.788;9.200;2023-07-20T08:12:26;2.50;;;2.10;;
6479;SDS011;3273;48.788;9.200;2023-07-20T08:14:53;3.33;;;2.07;;
6479;SDS011;3273;48.788;9.200;2023-07-20T08:17:20;5.53;;;2.00;;
6479;SDS011;3273;48.788;9.200;2023-07-20T08:19:46;3.70;;;2.17;;
6479;SDS011;3273;48.788;9.200;2023-07-20T08:22:13;5.63;;;2.00;;
6479;SDS011;3273;48.788;9.200;2023-07-20T08:24:42;4.23;;;2.20;;
6479;SDS011;3273;48.788;9.200;2023-07-20T08:27:09;3.57;;;2.10;;
6479;SDS011;3273;48.788;9.200;2023-07-20T08:29:36;3.37;;;2.00;;
6479;SDS011;3273;48.788;9.200;2023-07-20T08:32:04;2.40;;;1.83;;
6479;SDS011;3273;48.788;9.200;2023-07-20T08:34:31;2.27;;;1.93;;
6479;SDS011;3273;48.788;9.200;2023-07-20T08:36:58;2.43;;;1.97;;
6479;SDS011;3273;48.788;9.200;2023-07-20T08:39:25;3.07;;;2.23;;
6479;SDS011;3273;48.788;9.200;2023-07-20T08:41:53;2.57;;;2.17;;
6479;SDS011;3273;48.788;9.200;2023-07-20T08:44:21;3.40;;;2.00;;
6479;SDS011;3273;48.788;9.200;2023-07-20T08:46:48;4.13;;;2.00;;
6479;SDS011;3273;48.788;9.200;2023-07-20T08:49:15;2.83;;;2.00;;
6479;SDS011;3273;48.788;9.200;2023-07-20T08:51:43;2.53;;;2.10;;
6479;SDS011;3273;48.788;9.200;2023-07-20T08:54:12;2.00;;;1.80;;
6479;SDS011;3273;48.788;9.200;2023-07-20T08:56:40;4.87;;;2.00;;
6479;SDS011;3273;48.788;9.200;2023-07-20T08:59:09;2.23;;;1.80;;
6479;SDS011;3273;48.788;9.200;2023-07-20T09:01:36;2.90;;;2.00;;
6479;SDS011;3273;48.788;9.200;2023-07-20T09:04:05;2.20;;;1.90;;
6479;SDS011;3273;48.788;9.200;2023-07-20T09:06:32;2.40;;;2.00;;
6479;SDS011;3273;48.788;9.200;2023-07-20T09:09:00;4.50;;;2.00;;
6479;SDS011;3273;48.788;9.200;2023-07-20T09:11:26;2.50;;;1.97;;
6479;SDS011;3273;48.788;9.200;2023-07-20T09:14:01;3.03;;;2.00;;
6479;SDS011;3273;48.788;9.200;2023-07-20T09:16:31;3.90;;;2.00;;
6479;SDS011;3273;48.788;9.200;2023-07-20T09:18:58;2.97;;;1.80;;
6479;SDS011;3273;48.788;9.200;2023-07-20T09:21:27;2.80;;;1.83;;
6479;SDS011;3273;48.788;9.200;2023-07-20T09:23:56;3.40;;;1.90;;
6479;SDS011;3273;48.788;9.200;2023-07-20T09:26:23;3.93;;;2.17;;
6479;SDS011;3273;48.788;9.200;2023-07-20T09:28:51;3.50;;;2.00;;
6479;SDS011;3273;48.788;9.200;2023-07-20T09:31:19;2.60;;;1.97;;
6479;SDS011;3273;48.788;9.200;2023-07-20T09:33:49;4.37;;;2.23;;
6479;SDS011;3273;48.788;9.200;2023-07-20T09:36:18;6.90;;;2.00;;
6479;SDS011;3273;48.788;9.200;2023-07-20T09:38:45;2.37;;;1.90;;
6479;SDS011;3273;48.788;9.200;2023-07-20T09:41:12;1.97;;;1.80;;
6479;SDS011;3273;48.788;9.200;2023-07-20T09:43:39;3.03;;;1.90;;
6479;SDS011;3273;48.788;9.200;2023-07-20T09:46:06;2.27;;;1.80;;
6479;SDS011;3273;48.788;9.200;2023-07-20T09:48:33;2.03;;;1.80;;
6479;SDS011;3273;48.788;9.200;2023-07-20T09:51:01;3.37;;;1.77;;
6479;SDS011;3273;48.788;9.200;2023-07-20T09:53:29;2.93;;;1.80;;
6479;SDS011;3273;48.788;9.200;2023-07-20T09:55:58;2.37;;;2.10;;
6479;SDS011;3273;48.788;9.200;2023-07-20T09:58:25;3.30;;;1.73;;
6479;SDS011;3273;48.788;9.200;2023-07-20T10:00:52;2.73;;;1.80;;
6479;SDS011;3273;48.788;9.200;2023-07-20T10:03:24;2.93;;;2.00;;
6479;SDS011;3273;48.788;9.200;2023-07-20T10:05:54;1.90;;;1.70;;
6479;SDS011;3273;48.788;9.200;2023-07-20T10:08:25;2.33;;;2.13;;
6479;SDS011;3273;48.788;9.200;2023-07-20T10:10:54;4.30;;;1.90;;
6479;SDS011;3273;48.788;9.200;2023-07-20T10:13:21;2.43;;;1.73;;
6479;SDS011;3273;48.788;9.200;2023-07-20T10:15:53;2.03;;;1.70;;
6479;SDS011;3273;48.788;9.200;2023-07-20T10:18:22;3.53;;;1.80;;
6479;SDS011;3273;48.788;9.200;2023-07-20T10:20:54;2.93;;;1.70;;
6479;SDS011;3273;48.788;9.200;2023-07-20T10:23:22;1.97;;;1.50;;
6479;SDS011;3273;48.788;9.200;2023-07-20T10:25:51;5.77;;;1.90;;
6479;SDS011;3273;48.788;9.200;2023-07-20T10:28:18;2.90;;;1.90;;
6479;SDS011;3273;48.788;9.200;2023-07-20T10:30:44;2.13;;;1.63;;
6479;SDS011;3273;48.788;9.200;2023-07-20T10:33:12;3.27;;;1.80;;
6479;SDS011;3273;48.788;9.200;2023-07-20T10:35:52;2.70;;;1.60;;
6479;SDS011;3273;48.788;9.200;2023-07-20T10:38:20;2.37;;;1.67;;
6479;SDS011;3273;48.788;9.200;2023-07-20T10:41:16;2.00;;;1.53;;
6479;SDS011;3273;48.788;9.200;2023-07-20T10:43:44;2.00;;;1.80;;
6479;SDS011;3273;48.788;9.200;2023-07-20T10:46:11;3.23;;;1.90;;
6479;SDS011;3273;48.788;9.200;2023-07-20T10:51:27;3.30;;;1.70;;
6479;SDS011;3273;48.788;9.200;2023-07-20T10:53:54;2.37;;;1.53;;
6479;SDS011;3273;48.788;9.200;2023-07-20T10:56:23;2.10;;;1.70;;
6479;SDS011;3273;48.788;9.200;2023-07-20T10:58:57;1.60;;;1.50;;
6479;SDS011;3273;48.788;9.200;2023-07-20T11:01:27;1.77;;;1.60;;
6479;SDS011;3273;48.788;9.200;2023-07-20T11:03:57;1.80;;;1.67;;
6479;SDS011;3273;48.788;9.200;2023-07-20T11:06:32;2.10;;;1.70;;
6479;SDS011;3273;48.788;9.200;2023-07-20T11:09:07;1.63;;;1.50;;
6479;SDS011;3273;48.788;9.200;2023-07-20T11:11:38;2.27;;;1.50;;
6479;SDS011;3273;48.788;9.200;2023-07-20T11:14:05;1.90;;;1.63;;
6479;SDS011;3273;48.788;9.200;2023-07-20T11:16:34;2.33;;;1.70;;
6479;SDS011;3273;48.788;9.200;2023-07-20T11:19:02;1.90;;;1.70;;
6479;SDS011;3273;48.788;9.200;2023-07-20T11:21:29;1.70;;;1.60;;
6479;SDS011;3273;48.788;9.200;2023-07-20T11:23:57;4.73;;;1.60;;
6479;SDS011;3273;48.788;9.200;2023-07-20T11:26:23;2.90;;;1.57;;
6479;SDS011;3273;48.788;9.200;2023-07-20T11:28:51;2.70;;;1.40;;
6479;SDS011;3273;48.788;9.200;2023-07-20T11:31:18;2.13;;;1.60;;
6479;SDS011;3273;48.788;9.200;2023-07-20T11:33:45;2.27;;;1.60;;
6479;SDS011;3273;48.788;9.200;2023-07-20T11:36:13;2.07;;;1.60;;
6479;SDS011;3273;48.788;9.200;2023-07-20T11:38:40;2.37;;;1.50;;
6479;SDS011;3273;48.788;9.200;2023-07-20T11:41:08;2.00;;;1.60;;
6479;SDS011;3273;48.788;9.200;2023-07-20T11:43:35;2.37;;;1.53;;
6479;SDS011;3273;48.788;9.200;2023-07-20T11:46:05;3.87;;;1.83;;
6479;SDS011;3273;48.788;9.200;2023-07-20T11:48:32;2.30;;;1.67;;
6479;SDS011;3273;48.788;9.200;2023-07-20T11:50:59;1.70;;;1.50;;
6479;SDS011;3273;48.788;9.200;2023-07-20T11:53:25;1.67;;;1.50;;
6479;SDS011;3273;48.788;9.200;2023-07-20T11:55:52;1.70;;;1.60;;
6479;SDS011;3273;48.788;9.200;2023-07-20T11:58:20;1.97;;;1.60;;
6479;SDS011;3273;48.788;9.200;2023-07-20T12:00:47;3.13;;;1.57;;
6479;SDS011;3273;48.788;9.200;2023-07-20T12:03:15;1.77;;;1.50;;
6479;SDS011;3273;48.788;9.200;2023-07-20T12:05:41;3.40;;;1.70;;
6479;SDS011;3273;48.788;9.200;2023-07-20T12:08:08;4.63;;;1.60;;
6479;SDS011;3273;48.788;9.200;2023-07-20T12:10:38;1.67;;;1.57;;
6479;SDS011;3273;48.788;9.200;2023-07-20T12:13:09;1.77;;;1.37;;
6479;SDS011;3273;48.788;9.200;2023-07-20T12:15:37;2.03;;;1.43;;
6479;SDS011;3273;48.788;9.200;2023-07-20T12:18:03;2.90;;;1.50;;
6479;SDS011;3273;48.788;9.200;2023-07-20T12:20:32;1.53;;;1.43;;
6479;SDS011;3273;48.788;9.200;2023-07-20T12:23:01;4.57;;;1.70;;
6479;SDS011;3273;48.788;9.200;2023-07-20T12:25:33;2.93;;;1.60;;
6479;SDS011;3273;48.788;9.200;2023-07-20T12:28:04;1.80;;;1.60;;
6479;SDS011;3273;48.788;9.200;2023-07-20T12:30:31;4.03;;;1.53;;
6479;SDS011;3273;48.788;9.200;2023-07-20T12:32:58;5.40;;;1.70;;
6479;SDS011;3273;48.788;9.200;2023-07-20T12:35:25;2.23;;;1.60;;
6479;SDS011;3273;48.788;9.200;2023-07-20T12:37:53;3.17;;;1.70;;
6479;SDS011;3273;48.788;9.200;2023-07-20T12:40:20;4.13;;;1.50;;
6479;SDS011;3273;48.788;9.200;2023-07-20T12:42:46;3.20;;;1.60;;
6479;SDS011;3273;48.788;9.200;2023-07-20T12:45:13;2.00;;;1.50;;
6479;SDS011;3273;48.788;9.200;2023-07-20T12:47:40;1.60;;;1.50;;
6479;SDS011;3273;48.788;9.200;2023-07-20T12:50:07;2.07;;;1.60;;
6479;SDS011;3273;48.788;9.200;2023-07-20T12:52:35;3.20;;;1.90;;
6479;SDS011;3273;48.788;9.200;2023-07-20T12:55:04;1.93;;;1.50;;
6479;SDS011;3273;48.788;9.200;2023-07-20T12:57:32;1.53;;;1.43;;
6479;SDS011;3273;48.788;9.200;2023-07-20T12:59:59;2.27;;;1.30;;
6479;SDS011;3273;48.788;9.200;2023-07-20T13:02:26;1.80;;;1.60;;
6479;SDS011;3273;48.788;9.200;2023-07-20T13:04:53;1.90;;;1.50;;
6479;SDS011;3273;48.788;9.200;2023-07-20T13:07:22;2.57;;;1.70;;
6479;SDS011;3273;48.788;9.200;2023-07-20T13:09:56;4.63;;;1.67;;
6479;SDS011;3273;48.788;9.200;2023-07-20T13:12:26;1.87;;;1.50;;
6479;SDS011;3273;48.788;9.200;2023-07-20T13:14:54;2.73;;;1.50;;
6479;SDS011;3273;48.788;9.200;2023-07-20T13:17:21;1.60;;;1.50;;
6479;SDS011;3273;48.788;9.200;2023-07-20T13:19:48;1.60;;;1.50;;
6479;SDS011;3273;48.788;9.200;2023-07-20T13:22:15;2.10;;;1.70;;
6479;SDS011;3273;48.788;9.200;2023-07-20T13:24:44;1.60;;;1.50;;
6479;SDS011;3273;48.788;9.200;2023-07-20T13:27:11;2.90;;;1.70;;
6479;SDS011;3273;48.788;9.200;2023-07-20T13:29:39;1.67;;;1.57;;
6479;SDS011;3273;48.788;9.200;2023-07-20T13:32:06;1.90;;;1.70;;
6479;SDS011;3273;48.788;9.200;2023-07-20T13:34:34;3.10;;;1.63;;
6479;SDS011;3273;48.788;9.200;2023-07-20T13:37:00;1.87;;;1.40;;
6479;SDS011;3273;48.788;9.200;2023-07-20T13:39:27;2.23;;;1.47;;
6479;SDS011;3273;48.788;9.200;2023-07-20T13:41:54;1.60;;;1.50;;
6479;SDS011;3273;48.788;9.200;2023-07-20T13:44:21;2.30;;;1.73;;
6479;SDS011;3273;48.788;9.200;2023-07-20T13:46:49;1.63;;;1.50;;
6479;SDS011;3273;48.788;9.200;2023-07-20T13:49:16;1.63;;;1.43;;
6479;SDS011;3273;48.788;9.200;2023-07-20T13:51:42;1.40;;;1.30;;
6479;SDS011;3273;48.788;9.200;2023-07-20T13:54:09;1.60;;;1.50;;
6479;SDS011;3273;48.788;9.200;2023-07-20T13:56:36;1.80;;;1.40;;
6479;SDS011;3273;48.788;9.200;2023-07-20T13:59:03;1.87;;;1.50;;
6479;SDS011;3273;48.788;9.200;2023-07-20T14:01:30;2.93;;;1.60;;
6479;SDS011;3273;48.788;9.200;2023-07-20T14:03:59;2.17;;;1.77;;
6479;SDS011;3273;48.788;9.200;2023-07-20T14:06:29;1.90;;;1.60;;
6479;SDS011;3273;48.788;9.200;2023-07-20T14:08:56;1.80;;;1.60;;
6479;SDS011;3273;48.788;9.200;2023-07-20T14:11:23;3.17;;;1.60;;
6479;SDS011;3273;48.788;9.200;2023-07-20T14:13:50;2.00;;;1.50;;
6479;SDS011;3273;48.788;9.200;2023-07-20T14:16:18;3.43;;;1.60;;
6479;SDS011;3273;48.788;9.200;2023-07-20T14:18:44;3.90;;;1.50;;
6479;SDS011;3273;48.788;9.200;2023-07-20T14:21:13;2.67;;;1.33;;
6479;SDS011;3273;48.788;9.200;2023-07-20T14:23:40;1.85;;;1.30;;
6479;SDS011;3273;48.788;9.200;2023-07-20T14:26:07;1.67;;;1.20;;
6479;SDS011;3273;48.788;9.200;2023-07-20T14:28:34;1.50;;;1.30;;
6479;SDS011;3273;48.788;9.200;2023-07-20T14:31:00;1.43;;;1.33;;
6479;SDS011;3273;48.788;9.200;2023-07-20T14:33:27;3.27;;;1.50;;
6479;SDS011;3273;48.788;9.200;2023-07-20T14:35:53;1.90;;;1.70;;
6479;SDS011;3273;48.788;9.200;2023-07-20T14:38:21;2.27;;;1.57;;
6479;SDS011;3273;48.788;9.200;2023-07-20T14:40:48;2.40;;;1.37;;
6479;SDS011;3273;48.788;9.200;2023-07-20T14:43:15;1.42;;;1.30;;
6479;SDS011;3273;48.788;9.200;2023-07-20T14:45:42;3.05;;;1.50;;
6479;SDS011;3273;48.788;9.200;2023-07-20T14:48:08;3.35;;;1.42;;
6479;SDS011;3273;48.788;9.200;2023-07-20T14:50:35;2.15;;;1.40;;
6479;SDS011;3273;48.788;9.200;2023-07-20T14:53:01;3.92;;;1.40;;
6479;SDS011;3273;48.788;9.200;2023-07-20T14:55:30;1.50;;;1.25;;
6479;SDS011;3273;48.788;9.200;2023-07-20T14:57:56;1.60;;;1.50;;
6479;SDS011;3273;48.788;9.200;2023-07-20T15:00:23;2.30;;;1.40;;
6479;SDS011;3273;48.788;9.200;2023-07-20T15:02:51;1.92;;;1.40;;
6479;SDS011;3273;48.788;9.200;2023-07-20T15:05:20;1.50;;;1.40;;
6479;SDS011;3273;48.788;9.200;2023-07-20T15:07:48;1.93;;;1.50;;
6479;SDS011;3273;48.788;9.200;2023-07-20T15:10:14;1.67;;;1.50;;
6479;SDS011;3273;48.788;9.200;2023-07-20T15:12:43;1.80;;;1.50;;
6479;SDS011;3273;48.788;9.200;2023-07-20T15:15:10;2.60;;;1.40;;
6479;SDS011;3273;48.788;9.200;2023-07-20T15:17:38;1.33;;;1.15;;
6479;SDS011;3273;48.788;9.200;2023-07-20T15:20:06;1.65;;;1.55;;
6479;SDS011;3273;48.788;9.200;2023-07-20T15:22:35;2.35;;;1.38;;
6479;SDS011;3273;48.788;9.200;2023-07-20T15:25:03;1.95;;;1.40;;